Time;durP1;ratioP1;P1;durP2;ratioP2;P2;SDS_P1;SDS_P2;PMS_P1;PMS_P2;Temp;Humidity;BMP_temperature;BMP_pressure;BME280_temperature;BME280_humidity;BME280_pressure;Samples;Min_cycle;Max_cycle;Signal;HPM_P1;HPM_P2
2023/05/24 00:02:12;;;;;;;1.70;1.60;;;;;;;20.58;58.88;97647.34;4903825;29;20226;-30
2023/05/24 00:04:40;;;;;;;1.60;1.50;;;;;;;20.58;58.84;97643.91;4906837;29;20202;-31
2023/05/24 00:07:07;;;;;;;1.60;1.50;;;;;;;20.57;58.95;97645.59;4896723;29;20206;-31
2023/05/24 00:09:33;;;;;;;1.70;1.60;;;;;;;20.55;58.89;97637.03;4896807;29;20592;-31
2023/05/24 00:12:00;;;;;;;1.73;1.63;;;;;;;20.58;58.96;97644.78;4896579;29;20240;-31
2023/05/24 00:14:27;;;;;;;1.60;1.50;;;;;;;20.60;58.68;97649.94;4896122;29;20222;-31
2023/05/24 00:16:53;;;;;;;1.80;1.70;;;;;;;20.59;58.88;97643.09;4889001;29;20733;-31
2023/05/24 00:19:21;;;;;;;1.70;1.60;;;;;;;20.57;59.36;97637.09;4896147;29;20221;-31
2023/05/24 00:21:48;;;;;;;1.53;1.43;;;;;;;20.59;58.92;97637.97;4910820;29;20226;-31
2023/05/24 00:24:16;;;;;;;1.60;1.50;;;;;;;20.58;58.89;97639.69;4903237;29;20236;-31
2023/05/24 00:26:43;;;;;;;1.50;1.40;;;;;;;20.58;58.90;97634.59;4898457;29;20658;-30
2023/05/24 00:29:09;;;;;;;1.60;1.50;;;;;;;20.58;58.95;97637.13;4897276;29;20654;-31
2023/05/24 00:31:36;;;;;;;2.00;1.90;;;;;;;20.57;58.87;97635.38;4907344;29;20664;-31
2023/05/24 00:34:02;;;;;;;1.60;1.50;;;;;;;20.56;58.70;97633.66;4899538;29;20776;-30
2023/05/24 00:36:30;;;;;;;1.60;1.50;;;;;;;20.57;58.65;97634.53;4896812;29;20635;-30
2023/05/24 00:38:56;;;;;;;1.50;1.40;;;;;;;20.56;58.64;97628.53;4897533;29;20217;-31
2023/05/24 00:41:23;;;;;;;1.70;1.60;;;;;;;20.57;58.81;97629.41;4908773;29;20223;-31
2023/05/24 00:43:49;;;;;;;1.50;1.40;;;;;;;20.56;59.01;97626.00;4895215;29;20230;-30
2023/05/24 00:46:21;;;;;;;1.60;1.50;;;;;;;20.56;58.73;97626.00;4896028;29;20252;-31
2023/05/24 00:48:48;;;;;;;1.80;1.70;;;;;;;20.57;58.76;97617.50;4894945;29;20306;-31
2023/05/24 00:51:15;;;;;;;1.87;1.77;;;;;;;20.55;58.85;97608.94;4895661;29;20210;-31
2023/05/24 00:53:43;;;;;;;1.60;1.50;;;;;;;20.56;58.80;97620.00;4895250;29;20233;-31
2023/05/24 00:56:12;;;;;;;1.50;1.40;;;;;;;20.55;58.92;97618.28;4895217;29;20584;-30
2023/05/24 00:58:38;;;;;;;1.67;1.57;;;;;;;20.57;58.80;97625.16;4895207;29;20646;-31
2023/05/24 01:01:05;;;;;;;1.80;1.70;;;;;;;20.58;59.00;97623.50;4889755;29;20207;-31
2023/05/24 01:03:32;;;;;;;1.57;1.47;;;;;;;20.56;59.01;97623.44;4900819;29;20210;-31
2023/05/24 01:06:05;;;;;;;1.60;1.50;;;;;;;20.56;58.91;97615.78;4898594;29;20411;-31
2023/05/24 01:08:38;;;;;;;1.60;1.50;;;;;;;20.56;59.01;97626.00;4888975;29;20681;-32
2023/05/24 01:11:22;;;;;;;1.70;1.60;;;;;;;20.57;59.00;97616.66;4896153;29;20286;-31
2023/05/24 01:14:15;;;;;;;1.67;1.57;;;;;;;20.57;58.95;97621.75;4894524;29;20210;-31
2023/05/24 01:16:57;;;;;;;1.80;1.70;;;;;;;20.56;58.96;97614.91;4889716;29;20269;-30
2023/05/24 01:19:27;;;;;;;1.70;1.60;;;;;;;20.58;59.03;97614.16;4898107;29;20230;-31
2023/05/24 01:22:10;;;;;;;1.50;1.40;;;;;;;20.56;58.84;97618.31;4896246;29;20223;-31
2023/05/24 01:25:08;;;;;;;1.60;1.50;;;;;;;20.56;58.77;97615.78;4878253;29;20198;-31
2023/05/24 01:27:35;;;;;;;1.63;1.53;;;;;;;20.57;58.81;97619.22;4891729;29;20257;-31
2023/05/24 01:30:03;;;;;;;1.60;1.50;;;;;;;20.57;58.91;97630.28;4898235;29;20203;-31
2023/05/24 01:32:29;;;;;;;1.37;1.30;;;;;;;20.55;58.99;97626.81;4903086;29;20221;-31
2023/05/24 01:34:56;;;;;;;1.63;1.53;;;;;;;20.58;58.56;97631.16;4890274;29;20233;-31
2023/05/24 01:37:22;;;;;;;1.70;1.60;;;;;;;20.58;58.64;97641.34;4901626;29;20250;-31
2023/05/24 01:39:49;;;;;;;1.57;1.47;;;;;;;20.58;59.03;97631.16;4900631;29;20298;-31
2023/05/24 01:42:34;;;;;;;1.60;1.50;;;;;;;20.58;58.86;97637.13;4905210;29;20265;-31
2023/05/24 01:45:26;;;;;;;1.60;1.50;;;;;;;20.57;58.99;97637.09;4904248;29;20210;-31
2023/05/24 01:48:38;;;;;;;1.57;1.47;;;;;;;20.56;59.10;97641.31;4898498;29;20214;-31
2023/05/24 01:51:06;;;;;;;1.80;1.70;;;;;;;20.57;58.99;97650.69;4886982;29;20206;-31
2023/05/24 01:53:34;;;;;;;1.50;1.40;;;;;;;20.55;58.93;97651.47;4898912;29;20612;-31
2023/05/24 01:56:01;;;;;;;1.70;1.60;;;;;;;20.56;59.25;97648.97;4905468;29;20222;-31
2023/05/24 01:58:28;;;;;;;1.50;1.40;;;;;;;20.57;58.67;97654.94;4908365;29;20642;-31
2023/05/24 02:00:55;;;;;;;1.60;1.50;;;;;;;20.57;59.13;97645.59;4882289;29;20210;-32
2023/05/24 02:03:22;;;;;;;11.93;1.60;;;;;;;20.58;59.21;97656.69;4897689;29;20236;-31
2023/05/24 02:05:48;;;;;;;1.70;1.60;;;;;;;20.58;58.79;97659.22;4904537;29;20218;-31
2023/05/24 02:08:15;;;;;;;1.77;1.67;;;;;;;20.56;59.01;97648.09;4906406;29;20564;-36
2023/05/24 02:10:42;;;;;;;1.60;1.50;;;;;;;20.56;58.86;97641.31;4898784;29;20662;-31
2023/05/24 02:13:09;;;;;;;1.63;1.53;;;;;;;20.56;59.05;97641.31;4895077;29;20233;-31
2023/05/24 02:15:35;;;;;;;1.87;1.70;;;;;;;20.57;59.10;97645.59;4898731;29;20230;-31
2023/05/24 02:18:02;;;;;;;1.60;1.50;;;;;;;20.57;59.04;97657.50;4906442;29;20210;-31
2023/05/24 02:20:29;;;;;;;1.77;1.67;;;;;;;20.55;59.16;97654.03;4898503;29;20211;-31
2023/05/24 02:22:56;;;;;;;1.77;1.67;;;;;;;20.55;58.85;97654.03;4898419;29;20308;-31
2023/05/24 02:25:23;;;;;;;1.80;1.70;;;;;;;20.55;59.13;97660.00;4899611;29;20217;-30
2023/05/24 02:27:50;;;;;;;1.60;1.50;;;;;;;20.53;58.94;97647.97;4898795;29;20588;-31
2023/05/24 02:30:17;;;;;;;1.57;1.47;;;;;;;20.56;59.02;97655.75;4896613;29;20207;-31
2023/05/24 02:32:44;;;;;;;1.33;1.30;;;;;;;20.49;59.14;97647.00;4907534;29;20273;-31
2023/05/24 02:35:11;;;;;;;1.63;1.53;;;;;;;20.52;59.02;97644.53;4896788;29;20313;-31
2023/05/24 02:37:37;;;;;;;1.57;1.47;;;;;;;20.56;58.85;97648.97;4898215;29;20729;-31
2023/05/24 02:40:05;;;;;;;1.80;1.70;;;;;;;20.55;59.07;97652.34;4898458;29;20741;-30
2023/05/24 02:42:31;;;;;;;1.60;1.50;;;;;;;20.56;58.80;97656.63;4898099;29;20230;-31
2023/05/24 02:44:58;;;;;;;1.70;1.60;;;;;;;20.57;59.21;97655.81;4898212;29;20681;-31
2023/05/24 02:47:27;;;;;;;1.50;1.40;;;;;;;20.57;59.33;97660.06;4897887;29;20206;-31
2023/05/24 02:49:54;;;;;;;1.63;1.53;;;;;;;20.56;59.16;97651.53;4897963;29;20249;-31
2023/05/24 02:52:22;;;;;;;1.67;1.57;;;;;;;20.56;59.12;97650.63;4897471;29;20249;-31
2023/05/24 02:54:48;;;;;;;1.90;1.80;;;;;;;20.57;58.91;97647.28;4895006;29;20230;-31
2023/05/24 02:57:15;;;;;;;1.70;1.60;;;;;;;20.55;58.74;97652.34;4905575;29;20213;-31
2023/05/24 02:59:42;;;;;;;1.60;1.50;;;;;;;20.56;59.05;97651.53;4897923;29;20219;-31
2023/05/24 03:02:08;;;;;;;1.70;1.60;;;;;;;20.54;58.87;97642.09;4905567;29;20857;-32
2023/05/24 03:04:35;;;;;;;1.60;1.50;;;;;;;20.56;59.01;97642.97;4898380;29;20258;-31
2023/05/24 03:07:02;;;;;;;1.70;1.60;;;;;;;20.57;59.23;97642.19;4897754;29;20261;-31
2023/05/24 03:09:28;;;;;;;1.60;1.50;;;;;;;20.56;59.11;97635.31;4900060;29;20278;-31
2023/05/24 03:11:55;;;;;;;1.60;1.50;;;;;;;20.57;59.38;97647.28;4902686;29;20244;-31
2023/05/24 03:14:23;;;;;;;1.80;1.70;;;;;;;20.56;59.17;97650.63;4889890;29;20211;-31
2023/05/24 03:16:50;;;;;;;1.83;1.73;;;;;;;20.56;58.78;97655.75;4903059;29;20206;-31
2023/05/24 03:19:17;;;;;;;1.60;1.50;;;;;;;20.56;59.06;97659.19;4910284;29;20618;-31
2023/05/24 03:21:43;;;;;;;1.93;1.83;;;;;;;20.57;58.97;97660.91;4897465;29;20221;-31
2023/05/24 03:24:11;;;;;;;1.70;1.60;;;;;;;20.57;59.40;97666.00;4897394;29;20202;-31
2023/05/24 03:26:41;;;;;;;1.83;1.73;;;;;;;20.57;58.83;97663.47;4897839;29;20211;-31
2023/05/24 03:29:08;;;;;;;1.80;1.70;;;;;;;20.56;59.25;97660.84;4890644;29;20202;-31
2023/05/24 03:31:34;;;;;;;1.60;1.50;;;;;;;20.57;59.24;97660.06;4894216;29;20222;-31
2023/05/24 03:34:01;;;;;;;1.80;1.70;;;;;;;20.56;59.08;97656.63;4897313;29;20209;-31
2023/05/24 03:36:28;;;;;;;1.63;1.53;;;;;;;20.56;58.46;97655.75;4895155;29;20279;-31
2023/05/24 03:38:56;;;;;;;1.70;1.60;;;;;;;20.57;59.13;97660.06;4898544;29;20879;-31
2023/05/24 03:41:23;;;;;;;1.60;1.50;;;;;;;20.54;58.87;97650.59;4889907;29;20706;-31
2023/05/24 03:43:51;;;;;;;1.80;1.70;;;;;;;20.54;59.01;97644.63;4897105;29;20210;-31
2023/05/24 03:46:17;;;;;;;1.60;1.50;;;;;;;20.55;59.33;97649.78;4896133;29;20270;-31
2023/05/24 03:48:44;;;;;;;1.67;1.57;;;;;;;20.58;58.89;97661.78;4899913;29;20206;-32
2023/05/24 03:51:11;;;;;;;1.70;1.60;;;;;;;20.57;58.81;97652.41;4896784;29;20234;-31
2023/05/24 03:53:37;;;;;;;1.60;1.50;;;;;;;20.55;58.78;97657.44;4906502;29;20623;-38
2023/05/24 03:56:04;;;;;;;1.70;1.60;;;;;;;20.56;59.07;97658.31;4897070;29;20226;-31
2023/05/24 03:58:30;;;;;;;1.60;1.50;;;;;;;20.57;59.57;97654.94;4890353;29;20202;-31
2023/05/24 04:00:57;;;;;;;1.70;1.60;;;;;;;20.58;59.21;97655.00;4896664;29;20628;-31
2023/05/24 04:03:24;;;;;;;1.50;1.40;;;;;;;20.56;59.03;97658.31;4895584;29;20254;-31
2023/05/24 04:05:52;;;;;;;1.70;1.60;;;;;;;20.57;59.12;97660.06;4894378;29;20241;-30
2023/05/24 04:08:19;;;;;;;1.97;1.77;;;;;;;20.50;59.20;97646.19;4896257;29;20285;-31
2023/05/24 04:10:45;;;;;;;1.60;1.50;;;;;;;20.55;59.10;97656.56;4894507;29;20634;-31
2023/05/24 04:13:12;;;;;;;1.73;1.63;;;;;;;20.54;59.21;97655.69;4897107;29;20290;-30
2023/05/24 04:15:39;;;;;;;2.10;2.00;;;;;;;20.55;59.13;97644.69;4894137;29;20226;-32
2023/05/24 04:18:06;;;;;;;1.70;1.60;;;;;;;20.54;58.94;97644.63;4903533;29;20209;-31
2023/05/24 04:20:32;;;;;;;1.83;1.73;;;;;;;20.56;58.84;97642.97;4897186;29;20213;-31
2023/05/24 04:22:59;;;;;;;1.47;1.37;;;;;;;20.54;59.26;97640.38;4896642;29;20226;-31
2023/05/24 04:25:26;;;;;;;1.63;1.53;;;;;;;20.56;59.34;97632.75;4892096;29;20203;-31
2023/05/24 04:27:53;;;;;;;1.73;1.63;;;;;;;20.57;59.14;97643.03;4895641;29;20689;-31
2023/05/24 04:30:20;;;;;;;1.80;1.70;;;;;;;20.54;59.04;97631.88;4895777;29;20202;-33
2023/05/24 04:32:47;;;;;;;1.73;1.63;;;;;;;20.56;59.36;97636.19;4896094;29;20310;-30
2023/05/24 04:35:14;;;;;;;1.60;1.50;;;;;;;20.56;58.73;97635.31;4894032;29;20599;-33
2023/05/24 04:37:41;;;;;;;1.53;1.43;;;;;;;20.56;58.89;97640.44;4901712;29;20210;-31
2023/05/24 04:40:08;;;;;;;1.80;1.70;;;;;;;20.56;58.94;97642.97;4892304;29;20206;-31
2023/05/24 04:42:34;;;;;;;1.80;1.70;;;;;;;20.56;58.82;97640.44;4890774;29;20238;-31
2023/05/24 04:45:01;;;;;;;1.90;1.80;;;;;;;20.56;59.09;97648.09;4890672;29;20194;-31
2023/05/24 04:47:28;;;;;;;1.80;1.70;;;;;;;20.57;59.17;97652.41;4893028;29;20624;-32
2023/05/24 04:49:54;;;;;;;1.73;1.63;;;;;;;20.57;59.28;97649.84;4895843;29;20294;-32
2023/05/24 04:52:21;;;;;;;1.70;1.60;;;;;;;20.56;59.14;97651.53;4897110;29;20236;-31
2023/05/24 04:54:48;;;;;;;1.77;1.67;;;;;;;20.57;59.10;97652.41;4901857;29;20691;-31
2023/05/24 04:57:15;;;;;;;1.70;1.60;;;;;;;20.58;58.88;97655.00;4905967;29;20202;-31
2023/05/24 04:59:42;;;;;;;1.73;1.63;;;;;;;20.58;58.98;97661.78;4894159;29;20202;-31
2023/05/24 05:02:09;;;;;;;1.80;1.70;;;;;;;20.59;59.47;97668.63;4900081;29;20222;-31
2023/05/24 05:04:35;;;;;;;1.60;1.50;;;;;;;20.58;59.09;97670.31;4902228;29;20612;-31
2023/05/24 05:07:02;;;;;;;1.87;1.77;;;;;;;20.56;58.88;97661.72;4903960;29;20202;-30
2023/05/24 05:09:29;;;;;;;1.70;1.60;;;;;;;20.58;59.37;97667.78;4899774;29;20210;-32
2023/05/24 05:11:55;;;;;;;1.63;1.53;;;;;;;20.57;58.92;97663.47;4899849;29;20236;-30
2023/05/24 05:14:22;;;;;;;1.70;1.60;;;;;;;20.58;59.03;97672.88;4905095;29;20244;-30
2023/05/24 05:16:49;;;;;;;1.57;1.47;;;;;;;20.56;59.01;97663.41;4899703;29;20644;-31
2023/05/24 05:19:15;;;;;;;1.77;1.67;;;;;;;20.59;59.06;97669.50;4906326;29;20658;-31
2023/05/24 05:21:42;;;;;;;1.83;1.73;;;;;;;20.59;58.65;97674.59;4892081;29;20226;-30
2023/05/24 05:24:08;;;;;;;1.70;1.60;;;;;;;20.59;58.99;97676.28;4907830;29;20210;-38
2023/05/24 05:26:35;;;;;;;1.67;1.57;;;;;;;20.58;59.38;97675.44;4911710;29;20210;-31
2023/05/24 05:29:02;;;;;;;1.93;1.73;;;;;;;20.59;58.91;97673.72;4912080;29;20214;-31
2023/05/24 05:31:28;;;;;;;1.83;1.73;;;;;;;20.58;59.00;97660.13;4907545;29;20233;-31
2023/05/24 05:33:55;;;;;;;1.60;1.50;;;;;;;20.59;58.80;97663.50;4899576;29;20224;-31
2023/05/24 05:36:22;;;;;;;1.80;1.70;;;;;;;20.59;58.91;97664.41;4899173;29;20226;-31
2023/05/24 05:38:48;;;;;;;1.80;1.70;;;;;;;20.60;59.13;97660.16;4892820;29;20203;-31
2023/05/24 05:41:15;;;;;;;1.83;1.73;;;;;;;20.58;59.26;97662.66;4907147;29;20210;-30
2023/05/24 05:43:41;;;;;;;1.87;1.77;;;;;;;20.60;59.10;97663.56;4901502;29;20238;-31
2023/05/24 05:46:09;;;;;;;1.70;1.60;;;;;;;20.60;58.89;97666.13;4912493;29;20661;-31
2023/05/24 05:48:36;;;;;;;1.90;1.80;;;;;;;20.59;58.96;97659.28;4909184;29;20544;-31
2023/05/24 05:51:03;;;;;;;1.63;1.53;;;;;;;20.59;58.94;97660.97;4910133;29;20202;-31
2023/05/24 05:53:32;;;;;;;1.60;1.50;;;;;;;20.59;58.96;97654.19;4916474;23;20267;-28
2023/05/24 05:55:58;;;;;;;1.87;1.77;;;;;;;20.59;59.50;97666.06;4899045;29;20222;-28
2023/05/24 05:58:25;;;;;;;1.70;1.60;;;;;;;20.59;58.51;97659.28;4901088;29;20210;-28
2023/05/24 06:00:51;;;;;;;1.80;1.70;;;;;;;20.58;58.97;97656.69;4903700;29;20203;-28
2023/05/24 06:03:18;;;;;;;1.70;1.60;;;;;;;20.58;59.42;97665.22;4900347;29;20698;-28
2023/05/24 06:05:45;;;;;;;1.60;1.50;;;;;;;20.60;58.81;97662.72;4894106;29;20631;-28
2023/05/24 06:08:12;;;;;;;1.80;1.70;;;;;;;20.59;58.88;97664.41;4898942;29;20624;-28
2023/05/24 06:10:38;;;;;;;1.63;1.53;;;;;;;20.59;59.06;97664.41;4905780;29;20210;-28
2023/05/24 06:13:05;;;;;;;1.70;1.60;;;;;;;20.59;59.04;97672.06;4903602;29;20226;-28
2023/05/24 06:15:32;;;;;;;1.90;1.80;;;;;;;20.61;58.84;97667.00;4898226;29;20226;-28
2023/05/24 06:18:00;;;;;;;1.77;1.67;;;;;;;20.60;58.93;97671.22;4898394;29;20673;-28
2023/05/24 06:20:27;;;;;;;1.77;1.67;;;;;;;20.61;58.60;97669.56;4898410;29;20214;-28
2023/05/24 06:22:55;;;;;;;1.53;1.43;;;;;;;20.60;59.07;97678.88;4902334;29;20226;-28
2023/05/24 06:25:23;;;;;;;1.90;1.80;;;;;;;20.61;58.94;97673.00;4897461;29;20254;-28
2023/05/24 06:27:50;;;;;;;1.80;1.70;;;;;;;20.61;58.96;97669.56;4905527;29;20760;-28
2023/05/24 06:30:17;;;;;;;1.80;1.70;;;;;;;20.61;58.78;97672.09;4900262;29;20208;-28
2023/05/24 06:32:43;;;;;;;1.97;1.87;;;;;;;20.61;59.26;97670.44;4906346;29;20226;-28
2023/05/24 06:35:10;;;;;;;1.87;1.70;;;;;;;20.60;59.41;97668.69;4898050;29;20206;-28
2023/05/24 06:37:37;;;;;;;1.60;1.50;;;;;;;20.61;58.83;97667.88;4900064;29;20281;-28
2023/05/24 06:40:09;;;;;;;1.80;1.70;;;;;;;20.61;58.89;97669.56;4899294;29;20220;-28
2023/05/24 06:42:36;;;;;;;1.90;1.80;;;;;;;20.62;58.99;97672.16;4897888;29;20245;-28
2023/05/24 06:45:03;;;;;;;1.77;1.60;;;;;;;20.60;58.89;97666.13;4897950;29;20744;-28
2023/05/24 06:47:30;;;;;;;1.67;1.57;;;;;;;20.61;58.94;97674.66;4894167;29;20578;-28
2023/05/24 06:49:57;;;;;;;1.67;1.57;;;;;;;20.60;58.39;97671.22;4899561;29;20628;-28
2023/05/24 06:52:23;;;;;;;1.60;1.50;;;;;;;20.61;58.78;97669.56;4897254;29;20238;-28
2023/05/24 06:54:51;;;;;;;1.70;1.60;;;;;;;20.61;58.94;97670.44;4897843;29;20206;-28
2023/05/24 06:57:17;;;;;;;1.70;1.60;;;;;;;20.61;58.60;97673.00;4897853;29;20218;-28
2023/05/24 06:59:44;;;;;;;1.77;1.67;;;;;;;20.61;58.93;97674.66;4900934;29;20206;-31
2023/05/24 07:02:10;;;;;;;1.87;1.77;;;;;;;20.61;58.97;97675.53;4898526;29;20233;-28
2023/05/24 07:04:39;;;;;;;1.70;1.60;;;;;;;20.61;58.95;97683.19;4904482;29;20206;-28
2023/05/24 07:07:07;;;;;;;1.73;1.63;;;;;;;20.62;58.83;97686.59;4897864;29;20211;-28
2023/05/24 07:09:34;;;;;;;1.70;1.60;;;;;;;20.61;58.81;97692.53;4905310;29;20217;-28
2023/05/24 07:12:01;;;;;;;1.77;1.67;;;;;;;20.61;58.87;97693.41;4899518;29;20266;-29
2023/05/24 07:14:28;;;;;;;1.67;1.57;;;;;;;20.62;58.78;97696.81;4896007;29;20245;-28
2023/05/24 07:16:56;;;;;;;2.00;1.90;;;;;;;20.62;58.94;97691.72;4899445;29;20344;-28
2023/05/24 07:19:27;;;;;;;1.80;1.70;;;;;;;20.61;58.80;97701.06;4896946;29;20662;-29
2023/05/24 07:21:55;;;;;;;1.90;1.80;;;;;;;20.61;58.81;97701.06;4893173;29;20744;-28
2023/05/24 07:24:22;;;;;;;1.83;1.73;;;;;;;20.62;59.12;97699.38;4901853;29;20209;-28
2023/05/24 07:26:50;;;;;;;1.90;1.80;;;;;;;20.62;58.85;97704.47;4889700;29;20199;-28
2023/05/24 07:29:17;;;;;;;1.83;1.73;;;;;;;20.59;58.85;97710.34;4899036;29;20202;-28
2023/05/24 07:31:43;;;;;;;2.07;1.87;;;;;;;20.62;59.08;97707.03;4898359;29;20234;-28
2023/05/24 07:34:10;;;;;;;1.67;1.57;;;;;;;20.62;59.10;97717.25;4903920;29;20316;-28
2023/05/24 07:36:36;;;;;;;1.60;1.50;;;;;;;20.63;58.94;97713.91;4896923;29;20701;-28
2023/05/24 07:39:05;;;;;;;1.80;1.70;;;;;;;20.62;58.77;97704.47;4896937;29;20210;-28
2023/05/24 07:41:32;;;;;;;1.77;1.67;;;;;;;20.61;58.83;97706.19;4897147;29;20232;-28
2023/05/24 07:43:59;;;;;;;1.73;1.63;;;;;;;20.60;59.16;97706.97;4901051;29;20225;-28
2023/05/24 07:46:25;;;;;;;1.60;1.50;;;;;;;20.59;58.90;97705.25;4892784;29;20203;-28
2023/05/24 07:48:52;;;;;;;1.80;1.70;;;;;;;20.58;59.13;97708.63;4903547;29;20636;-28
2023/05/24 07:51:20;;;;;;;1.77;1.67;;;;;;;20.61;59.24;97710.41;4892525;29;20211;-28
2023/05/24 07:53:47;;;;;;;1.93;1.83;;;;;;;20.60;59.11;97711.25;4891369;29;20272;-28
2023/05/24 07:56:13;;;;;;;1.63;1.53;;;;;;;20.61;58.80;97711.28;4899703;29;20226;-28
2023/05/24 07:58:41;;;;;;;2.00;1.90;;;;;;;20.59;59.06;97710.34;4895158;29;20601;-28
2023/05/24 08:01:08;;;;;;;1.70;1.60;;;;;;;20.60;59.13;97713.78;4899004;29;20201;-28
2023/05/24 08:03:36;;;;;;;1.80;1.70;;;;;;;20.61;59.29;97728.28;4896274;29;20641;-30
2023/05/24 08:06:02;;;;;;;1.93;1.60;;;;;;;20.61;58.76;97726.63;4896811;29;20202;-28
2023/05/24 08:08:29;;;;;;;1.80;1.70;;;;;;;20.61;58.81;97724.06;4899648;29;20211;-28
2023/05/24 08:10:56;;;;;;;1.87;1.77;;;;;;;20.61;58.67;97726.63;4896664;29;20206;-28
2023/05/24 08:13:23;;;;;;;1.80;1.70;;;;;;;20.62;58.70;97727.47;4897761;29;20657;-28
2023/05/24 08:15:49;;;;;;;1.87;1.77;;;;;;;20.61;58.84;97736.81;4900683;29;20202;-29
2023/05/24 08:18:16;;;;;;;1.90;1.80;;;;;;;20.62;58.78;97732.56;4898484;29;20685;-28
2023/05/24 08:20:43;;;;;;;1.80;1.70;;;;;;;20.63;58.83;97739.44;4901603;29;20572;-28
2023/05/24 08:23:09;;;;;;;1.70;1.60;;;;;;;20.61;58.96;97739.38;4896454;29;20652;-28
2023/05/24 08:25:36;;;;;;;1.80;1.70;;;;;;;20.61;58.75;97741.94;4902941;29;20210;-28
2023/05/24 08:28:03;;;;;;;1.80;1.70;;;;;;;20.63;58.54;97747.09;4896592;29;20217;-28
2023/05/24 08:30:31;;;;;;;1.83;1.73;;;;;;;20.62;59.07;97753.88;4895966;29;20297;-28
2023/05/24 08:32:57;;;;;;;1.63;1.53;;;;;;;20.62;58.95;97742.78;4900988;29;20297;-28
2023/05/24 08:35:24;;;;;;;1.70;1.60;;;;;;;20.62;59.35;97743.66;4898649;29;20211;-28
2023/05/24 08:37:51;;;;;;;1.83;1.73;;;;;;;20.61;59.00;97744.47;4896544;29;20230;-28
2023/05/24 08:40:17;;;;;;;1.70;1.60;;;;;;;20.62;58.76;97746.22;4900773;29;20670;-28
2023/05/24 08:42:44;;;;;;;1.73;1.63;;;;;;;20.62;58.82;97753.00;4895940;29;20236;-28
2023/05/24 08:45:12;;;;;;;1.83;1.73;;;;;;;20.62;58.65;97748.78;4895146;29;20210;-28
2023/05/24 08:47:38;;;;;;;1.80;1.70;;;;;;;20.63;58.84;97749.66;4888720;29;20210;-28
2023/05/24 08:50:06;;;;;;;2.20;1.80;;;;;;;20.63;58.90;97754.75;4900627;29;20214;-28
2023/05/24 08:52:32;;;;;;;2.00;1.90;;;;;;;20.61;58.86;97756.38;4891119;29;20277;-28
2023/05/24 08:54:59;;;;;;;1.70;1.60;;;;;;;20.60;58.95;97758.03;4894984;29;20568;-28
2023/05/24 08:57:26;;;;;;;1.90;1.80;;;;;;;20.63;58.81;97762.41;4894688;29;20218;-28
2023/05/24 08:59:56;;;;;;;2.13;1.90;;;;;;;20.62;58.67;97756.44;4896224;29;20662;-28
2023/05/24 09:02:22;;;;;;;1.70;1.60;;;;;;;20.62;58.86;97753.88;4899609;29;20317;-28
2023/05/24 09:04:50;;;;;;;1.90;1.80;;;;;;;20.62;58.85;97753.88;4896031;29;20207;-28
2023/05/24 09:07:19;;;;;;;1.80;1.70;;;;;;;20.62;58.79;97751.31;4894871;29;20322;-28
2023/05/24 09:09:48;;;;;;;1.73;1.63;;;;;;;20.63;58.93;97758.16;4899367;29;20296;-29
2023/05/24 09:12:16;;;;;;;1.73;1.63;;;;;;;20.63;58.65;97755.59;4892111;29;20227;-28
2023/05/24 09:15:01;;;;;;;1.73;1.63;;;;;;;20.63;58.69;97755.59;4894525;29;20659;-28
2023/05/24 09:17:29;;;;;;;1.70;1.60;;;;;;;20.64;58.91;97752.25;4890214;29;20223;-28
2023/05/24 09:19:59;;;;;;;1.83;1.73;;;;;;;20.63;59.00;97750.50;4892860;29;20307;-28
2023/05/24 09:22:27;;;;;;;1.80;1.70;;;;;;;20.63;58.79;97753.06;4896503;29;20230;-28
2023/05/24 09:24:59;;;;;;;1.93;1.83;;;;;;;20.63;58.75;97744.53;4895764;29;20634;-28
2023/05/24 09:27:25;;;;;;;1.80;1.70;;;;;;;20.63;58.57;97749.66;4895924;29;20262;-28
2023/05/24 09:29:52;;;;;;;1.90;1.80;;;;;;;20.62;58.84;97750.44;4895584;29;20207;-28
2023/05/24 09:32:22;;;;;;;1.90;1.80;;;;;;;20.63;58.90;97759.88;4894784;29;20223;-28
2023/05/24 09:34:51;;;;;;;1.80;1.70;;;;;;;20.61;59.03;97759.81;4894933;29;20207;-28
2023/05/24 09:37:22;;;;;;;1.87;1.77;;;;;;;20.60;58.85;97763.16;4894098;29;20223;-28
2023/05/24 09:39:57;;;;;;;1.77;1.67;;;;;;;20.62;59.08;97760.66;4897119;29;20210;-29
2023/05/24 09:42:25;;;;;;;1.90;1.80;;;;;;;20.61;58.92;97746.16;4899151;29;20230;-28
2023/05/24 09:45:08;;;;;;;1.80;1.70;;;;;;;20.62;58.93;97745.34;4899511;29;20337;-28
2023/05/24 09:47:36;;;;;;;1.70;1.60;;;;;;;20.63;58.71;97762.41;4902467;29;20502;-28
2023/05/24 09:50:03;;;;;;;1.90;1.80;;;;;;;20.63;58.81;97757.31;4898673;29;20262;-28
2023/05/24 09:52:30;;;;;;;1.80;1.70;;;;;;;20.62;58.59;97763.22;4899162;29;20297;-28
2023/05/24 09:54:59;;;;;;;1.77;1.67;;;;;;;20.63;58.52;97762.41;4873050;29;20280;-28
2023/05/24 09:57:27;;;;;;;1.90;1.80;;;;;;;20.63;59.16;97758.16;4902519;29;20222;-28
2023/05/24 09:59:53;;;;;;;2.10;1.80;;;;;;;20.63;58.34;97739.44;4897088;29;20678;-28
2023/05/24 10:02:22;;;;;;;1.60;1.50;;;;;;;20.62;58.65;97747.88;4898958;29;20282;-28
2023/05/24 10:04:56;;;;;;;1.40;1.30;;;;;;;20.63;58.90;97754.75;4908529;29;20292;-28
2023/05/24 10:07:23;;;;;;;1.53;1.43;;;;;;;20.61;58.47;97754.69;4908643;29;20198;-28
2023/05/24 10:09:49;;;;;;;1.70;1.60;;;;;;;20.62;58.88;97756.44;4885031;29;20210;-28
2023/05/24 10:12:16;;;;;;;1.60;1.50;;;;;;;20.61;58.47;97761.47;4894746;29;20258;-28
2023/05/24 10:14:42;;;;;;;1.80;1.70;;;;;;;20.62;58.73;97764.09;4895119;29;20266;-28
2023/05/24 10:17:10;;;;;;;1.80;1.70;;;;;;;20.63;59.01;97753.06;4883146;29;20218;-28
2023/05/24 10:19:37;;;;;;;1.63;1.53;;;;;;;20.62;58.80;97750.44;4897132;29;20261;-28
2023/05/24 10:22:07;;;;;;;1.60;1.50;;;;;;;20.63;58.66;97754.75;4900390;29;20661;-30
2023/05/24 10:24:45;;;;;;;1.70;1.60;;;;;;;20.63;58.90;97757.31;4906159;29;20213;-29
2023/05/24 10:27:14;;;;;;;1.80;1.70;;;;;;;20.64;58.76;97756.47;4897947;29;20206;-28
2023/05/24 10:30:15;;;;;;;1.90;1.70;;;;;;;20.62;58.77;97764.09;4897406;29;20704;-28
2023/05/24 10:32:42;;;;;;;1.60;1.50;;;;;;;20.63;58.85;97759.88;4898056;29;20231;-28
2023/05/24 10:35:11;;;;;;;1.70;1.60;;;;;;;20.57;58.29;97741.78;4898373;29;20202;-28
2023/05/24 10:37:37;;;;;;;1.80;1.70;;;;;;;20.61;58.83;97746.16;4885924;29;20644;-28
2023/05/24 10:40:08;;;;;;;1.73;1.63;;;;;;;20.63;58.71;97750.50;4898908;29;20210;-28
2023/05/24 10:42:35;;;;;;;1.80;1.70;;;;;;;20.63;58.81;97755.59;4895057;29;20238;-30
2023/05/24 10:45:30;;;;;;;1.67;1.57;;;;;;;20.64;58.85;97764.16;4881632;29;20262;-28
2023/05/24 10:48:00;;;;;;;1.70;1.60;;;;;;;20.63;58.75;97773.47;4893844;29;20793;-29
2023/05/24 10:50:27;;;;;;;1.97;1.83;;;;;;;20.64;58.89;97761.59;4892800;29;20211;-29
2023/05/24 10:53:12;;;;;;;1.80;1.70;;;;;;;20.63;58.63;97747.94;4896308;29;20314;-28
2023/05/24 10:55:58;;;;;;;1.80;1.70;;;;;;;20.63;58.64;97745.38;4906354;29;20210;-28
2023/05/24 10:58:31;;;;;;;1.90;1.80;;;;;;;20.64;58.80;97746.28;4892905;29;20254;-28
2023/05/24 11:00:58;;;;;;;1.70;1.60;;;;;;;20.63;58.82;97763.25;4900398;29;20284;-28
2023/05/24 11:03:24;;;;;;;1.70;1.60;;;;;;;20.63;58.95;97752.19;4897823;29;20226;-28
2023/05/24 11:05:53;;;;;;;2.03;1.87;;;;;;;20.64;58.84;97753.94;4888330;29;20213;-28
2023/05/24 11:08:42;;;;;;;1.60;1.50;;;;;;;20.63;58.98;97745.38;4898539;29;20205;-28
2023/05/24 11:11:10;;;;;;;1.63;1.53;;;;;;;20.64;58.69;97741.16;4890990;29;20324;-28
2023/05/24 11:13:39;;;;;;;2.00;1.80;;;;;;;20.64;58.90;97738.63;4897612;29;20262;-28
2023/05/24 11:16:06;;;;;;;1.50;1.40;;;;;;;20.65;58.77;97742.91;4901108;29;20207;-28
2023/05/24 11:18:39;;;;;;;1.70;1.60;;;;;;;20.63;59.05;97742.00;4897224;29;20250;-28
2023/05/24 11:21:06;;;;;;;1.80;1.70;;;;;;;20.63;58.74;97736.88;4889998;29;20620;-28
2023/05/24 11:23:33;;;;;;;1.80;1.70;;;;;;;20.62;58.77;97730.91;4897467;29;20613;-28
2023/05/24 11:26:03;;;;;;;1.70;1.60;;;;;;;20.63;58.75;97735.19;4900932;29;20207;-28
2023/05/24 11:28:31;;;;;;;1.83;1.73;;;;;;;20.62;59.02;97733.44;4894145;29;20202;-28
2023/05/24 11:30:58;;;;;;;1.80;1.70;;;;;;;20.62;58.88;97733.44;4880515;29;20294;-28
2023/05/24 11:33:26;;;;;;;1.60;1.50;;;;;;;20.62;58.63;97733.44;4883496;29;20713;-28
2023/05/24 11:35:53;;;;;;;1.80;1.70;;;;;;;20.62;58.77;97736.00;4897495;29;20210;-29
2023/05/24 11:38:20;;;;;;;1.90;1.80;;;;;;;20.63;59.11;97742.84;4897090;29;20597;-28
2023/05/24 11:40:50;;;;;;;2.03;1.83;;;;;;;20.64;58.72;97743.72;4896221;29;20217;-28